sensor_id;sensor_type;location;lat;lon;timestamp;P1;durP1;ratioP1;P2;durP2;ratioP2
83552;SDS011;73510;50.866;5.420;2024-02-04T00:01:41;9.95;;;5.70;;
83552;SDS011;73510;50.866;5.420;2024-02-04T00:04:07;8.40;;;4.80;;
83552;SDS011;73510;50.866;5.420;2024-02-04T00:06:33;8.40;;;5.07;;
83552;SDS011;73510;50.866;5.420;2024-02-04T00:08:58;7.22;;;4.18;;
83552;SDS011;73510;50.866;5.420;2024-02-04T00:11:24;6.60;;;4.43;;
83552;SDS011;73510;50.866;5.420;2024-02-04T00:13:50;6.95;;;4.53;;
83552;SDS011;73510;50.866;5.420;2024-02-04T00:16:17;5.45;;;3.75;;
83552;SDS011;73510;50.866;5.420;2024-02-04T00:18:42;6.38;;;4.47;;
83552;SDS011;73510;50.866;5.420;2024-02-04T00:21:08;9.73;;;4.95;;
83552;SDS011;73510;50.866;5.420;2024-02-04T00:23:34;8.85;;;4.30;;
83552;SDS011;73510;50.866;5.420;2024-02-04T00:26:00;7.18;;;4.68;;
83552;SDS011;73510;50.866;5.420;2024-02-04T00:28:25;6.90;;;4.30;;
83552;SDS011;73510;50.866;5.420;2024-02-04T00:30:52;6.88;;;4.13;;
83552;SDS011;73510;50.866;5.420;2024-02-04T00:33:20;7.10;;;4.30;;
83552;SDS011;73510;50.866;5.420;2024-02-04T00:35:47;7.00;;;3.95;;
83552;SDS011;73510;50.866;5.420;2024-02-04T00:38:13;7.20;;;4.07;;
83552;SDS011;73510;50.866;5.420;2024-02-04T00:40:38;6.78;;;4.22;;
83552;SDS011;73510;50.866;5.420;2024-02-04T00:43:04;5.72;;;3.53;;
83552;SDS011;73510;50.866;5.420;2024-02-04T00:45:30;7.57;;;4.32;;
83552;SDS011;73510;50.866;5.420;2024-02-04T00:47:56;7.47;;;3.90;;
83552;SDS011;73510;50.866;5.420;2024-02-04T00:50:22;7.38;;;4.07;;
83552;SDS011;73510;50.866;5.420;2024-02-04T00:52:48;7.95;;;4.10;;
83552;SDS011;73510;50.866;5.420;2024-02-04T00:55:13;6.85;;;4.32;;
83552;SDS011;73510;50.866;5.420;2024-02-04T00:57:39;8.15;;;4.10;;
83552;SDS011;73510;50.866;5.420;2024-02-04T01:00:05;5.13;;;3.35;;
83552;SDS011;73510;50.866;5.420;2024-02-04T01:02:31;5.93;;;4.18;;
83552;SDS011;73510;50.866;5.420;2024-02-04T01:04:56;5.90;;;4.20;;
83552;SDS011;73510;50.866;5.420;2024-02-04T01:07:22;6.25;;;4.00;;
83552;SDS011;73510;50.866;5.420;2024-02-04T01:09:48;6.57;;;4.15;;
83552;SDS011;73510;50.866;5.420;2024-02-04T01:12:13;6.22;;;3.25;;
83552;SDS011;73510;50.866;5.420;2024-02-04T01:14:39;7.72;;;4.25;;
83552;SDS011;73510;50.866;5.420;2024-02-04T01:17:05;6.07;;;4.00;;
83552;SDS011;73510;50.866;5.420;2024-02-04T01:19:32;7.78;;;4.10;;
83552;SDS011;73510;50.866;5.420;2024-02-04T01:21:58;6.95;;;4.18;;
83552;SDS011;73510;50.866;5.420;2024-02-04T01:24:24;7.18;;;4.40;;
83552;SDS011;73510;50.866;5.420;2024-02-04T01:26:50;7.00;;;4.05;;
83552;SDS011;73510;50.866;5.420;2024-02-04T01:29:16;4.55;;;3.38;;
83552;SDS011;73510;50.866;5.420;2024-02-04T01:31:41;7.28;;;3.38;;
83552;SDS011;73510;50.866;5.420;2024-02-04T01:34:07;4.38;;;3.38;;
83552;SDS011;73510;50.866;5.420;2024-02-04T01:36:33;8.48;;;4.07;;
83552;SDS011;73510;50.866;5.420;2024-02-04T01:38:58;5.60;;;3.70;;
83552;SDS011;73510;50.866;5.420;2024-02-04T01:41:24;5.18;;;3.30;;
83552;SDS011;73510;50.866;5.420;2024-02-04T01:43:52;5.45;;;3.60;;
83552;SDS011;73510;50.866;5.420;2024-02-04T01:46:18;6.40;;;3.72;;
83552;SDS011;73510;50.866;5.420;2024-02-04T01:48:44;7.70;;;3.85;;
83552;SDS011;73510;50.866;5.420;2024-02-04T01:51:10;6.40;;;3.90;;
83552;SDS011;73510;50.866;5.420;2024-02-04T01:53:38;6.93;;;3.45;;
83552;SDS011;73510;50.866;5.420;2024-02-04T01:56:07;5.03;;;3.13;;
83552;SDS011;73510;50.866;5.420;2024-02-04T01:58:33;6.82;;;3.67;;
83552;SDS011;73510;50.866;5.420;2024-02-04T02:00:59;5.85;;;3.50;;
83552;SDS011;73510;50.866;5.420;2024-02-04T02:03:25;7.78;;;3.35;;
83552;SDS011;73510;50.866;5.420;2024-02-04T02:05:52;9.13;;;3.65;;
83552;SDS011;73510;50.866;5.420;2024-02-04T02:08:17;6.95;;;2.95;;
83552;SDS011;73510;50.866;5.420;2024-02-04T02:10:43;4.47;;;3.15;;
83552;SDS011;73510;50.866;5.420;2024-02-04T02:13:17;5.68;;;3.10;;
83552;SDS011;73510;50.866;5.420;2024-02-04T02:15:52;6.40;;;3.20;;
83552;SDS011;73510;50.866;5.420;2024-02-04T02:18:25;3.28;;;2.35;;
83552;SDS011;73510;50.866;5.420;2024-02-04T02:23:48;4.72;;;2.75;;
83552;SDS011;73510;50.866;5.420;2024-02-04T02:26:23;6.55;;;3.10;;
83552;SDS011;73510;50.866;5.420;2024-02-04T02:28:48;4.18;;;3.00;;
83552;SDS011;73510;50.866;5.420;2024-02-04T02:31:14;4.85;;;2.88;;
83552;SDS011;73510;50.866;5.420;2024-02-04T02:33:40;5.25;;;2.80;;
83552;SDS011;73510;50.866;5.420;2024-02-04T02:36:07;4.88;;;3.03;;
83552;SDS011;73510;50.866;5.420;2024-02-04T02:41:42;4.10;;;2.70;;
83552;SDS011;73510;50.866;5.420;2024-02-04T02:44:12;5.00;;;2.70;;
83552;SDS011;73510;50.866;5.420;2024-02-04T02:46:40;5.63;;;2.53;;
83552;SDS011;73510;50.866;5.420;2024-02-04T02:49:06;4.35;;;2.70;;
83552;SDS011;73510;50.866;5.420;2024-02-04T02:51:31;4.85;;;2.50;;
83552;SDS011;73510;50.866;5.420;2024-02-04T02:53:57;7.10;;;2.70;;
83552;SDS011;73510;50.866;5.420;2024-02-04T02:56:23;4.90;;;2.50;;
83552;SDS011;73510;50.866;5.420;2024-02-04T02:58:48;5.40;;;2.85;;
83552;SDS011;73510;50.866;5.420;2024-02-04T03:01:14;5.93;;;2.95;;
83552;SDS011;73510;50.866;5.420;2024-02-04T03:03:40;7.70;;;2.60;;
83552;SDS011;73510;50.866;5.420;2024-02-04T03:06:06;4.25;;;2.53;;
83552;SDS011;73510;50.866;5.420;2024-02-04T03:08:32;8.68;;;2.90;;
83552;SDS011;73510;50.866;5.420;2024-02-04T03:10:58;6.53;;;2.72;;
83552;SDS011;73510;50.866;5.420;2024-02-04T03:13:24;4.60;;;2.47;;
83552;SDS011;73510;50.866;5.420;2024-02-04T03:15:50;4.20;;;2.60;;
83552;SDS011;73510;50.866;5.420;2024-02-04T03:18:16;5.35;;;2.55;;
83552;SDS011;73510;50.866;5.420;2024-02-04T03:20:41;4.03;;;2.65;;
83552;SDS011;73510;50.866;5.420;2024-02-04T03:23:07;5.20;;;2.70;;
83552;SDS011;73510;50.866;5.420;2024-02-04T03:25:33;8.93;;;3.33;;
83552;SDS011;73510;50.866;5.420;2024-02-04T03:27:59;5.05;;;3.13;;
83552;SDS011;73510;50.866;5.420;2024-02-04T03:30:24;3.97;;;2.65;;
83552;SDS011;73510;50.866;5.420;2024-02-04T03:32:50;4.63;;;3.05;;
83552;SDS011;73510;50.866;5.420;2024-02-04T03:35:16;4.53;;;2.80;;
83552;SDS011;73510;50.866;5.420;2024-02-04T03:37:41;6.15;;;2.88;;
83552;SDS011;73510;50.866;5.420;2024-02-04T03:40:07;4.95;;;2.70;;
83552;SDS011;73510;50.866;5.420;2024-02-04T03:42:33;4.75;;;2.45;;
83552;SDS011;73510;50.866;5.420;2024-02-04T03:44:59;4.40;;;2.78;;
83552;SDS011;73510;50.866;5.420;2024-02-04T03:47:26;4.63;;;2.72;;
83552;SDS011;73510;50.866;5.420;2024-02-04T03:49:52;3.78;;;2.50;;
83552;SDS011;73510;50.866;5.420;2024-02-04T03:52:17;3.90;;;2.58;;
83552;SDS011;73510;50.866;5.420;2024-02-04T03:54:43;4.00;;;2.58;;
83552;SDS011;73510;50.866;5.420;2024-02-04T03:57:09;3.70;;;2.75;;
83552;SDS011;73510;50.866;5.420;2024-02-04T03:59:35;4.38;;;2.67;;
83552;SDS011;73510;50.866;5.420;2024-02-04T04:02:00;5.80;;;3.08;;
83552;SDS011;73510;50.866;5.420;2024-02-04T04:04:27;7.95;;;3.05;;
83552;SDS011;73510;50.866;5.420;2024-02-04T04:06:52;6.43;;;3.10;;
83552;SDS011;73510;50.866;5.420;2024-02-04T04:09:18;5.28;;;3.03;;
83552;SDS011;73510;50.866;5.420;2024-02-04T04:11:44;3.92;;;2.70;;
83552;SDS011;73510;50.866;5.420;2024-02-04T04:14:10;5.50;;;2.60;;
83552;SDS011;73510;50.866;5.420;2024-02-04T04:16:35;5.97;;;2.60;;
83552;SDS011;73510;50.866;5.420;2024-02-04T04:19:01;5.25;;;2.53;;
83552;SDS011;73510;50.866;5.420;2024-02-04T04:21:27;4.55;;;2.63;;
83552;SDS011;73510;50.866;5.420;2024-02-04T04:23:53;4.20;;;2.70;;
83552;SDS011;73510;50.866;5.420;2024-02-04T04:26:18;5.28;;;2.78;;
83552;SDS011;73510;50.866;5.420;2024-02-04T04:28:44;3.90;;;2.20;;
83552;SDS011;73510;50.866;5.420;2024-02-04T04:31:10;4.75;;;3.00;;
83552;SDS011;73510;50.866;5.420;2024-02-04T04:33:35;4.38;;;2.42;;
83552;SDS011;73510;50.866;5.420;2024-02-04T04:36:01;4.15;;;2.33;;
83552;SDS011;73510;50.866;5.420;2024-02-04T04:38:27;8.35;;;2.83;;
83552;SDS011;73510;50.866;5.420;2024-02-04T04:40:53;4.70;;;2.58;;
83552;SDS011;73510;50.866;5.420;2024-02-04T04:43:18;5.00;;;2.70;;
83552;SDS011;73510;50.866;5.420;2024-02-04T04:45:45;6.40;;;2.75;;
83552;SDS011;73510;50.866;5.420;2024-02-04T04:48:10;5.07;;;3.25;;
83552;SDS011;73510;50.866;5.420;2024-02-04T04:50:36;5.35;;;2.67;;
83552;SDS011;73510;50.866;5.420;2024-02-04T04:53:03;5.13;;;2.60;;
83552;SDS011;73510;50.866;5.420;2024-02-04T04:55:28;4.80;;;2.80;;
83552;SDS011;73510;50.866;5.420;2024-02-04T04:57:54;4.47;;;2.50;;
83552;SDS011;73510;50.866;5.420;2024-02-04T05:00:20;6.70;;;3.05;;
83552;SDS011;73510;50.866;5.420;2024-02-04T05:02:45;5.88;;;3.28;;
83552;SDS011;73510;50.866;5.420;2024-02-04T05:05:13;5.15;;;2.67;;
83552;SDS011;73510;50.866;5.420;2024-02-04T05:07:39;4.80;;;2.90;;
83552;SDS011;73510;50.866;5.420;2024-02-04T05:10:05;3.67;;;2.30;;
83552;SDS011;73510;50.866;5.420;2024-02-04T05:12:32;3.95;;;2.45;;
83552;SDS011;73510;50.866;5.420;2024-02-04T05:14:59;3.90;;;2.72;;
83552;SDS011;73510;50.866;5.420;2024-02-04T05:17:26;4.60;;;2.63;;
83552;SDS011;73510;50.866;5.420;2024-02-04T05:19:51;3.25;;;2.10;;
83552;SDS011;73510;50.866;5.420;2024-02-04T05:22:17;5.28;;;2.90;;
83552;SDS011;73510;50.866;5.420;2024-02-04T05:24:43;4.55;;;2.80;;
83552;SDS011;73510;50.866;5.420;2024-02-04T05:27:09;4.05;;;2.40;;
83552;SDS011;73510;50.866;5.420;2024-02-04T05:29:35;4.22;;;1.85;;
83552;SDS011;73510;50.866;5.420;2024-02-04T05:32:00;3.83;;;2.13;;
83552;SDS011;73510;50.866;5.420;2024-02-04T05:34:26;4.68;;;2.08;;
83552;SDS011;73510;50.866;5.420;2024-02-04T05:36:52;5.60;;;2.35;;
83552;SDS011;73510;50.866;5.420;2024-02-04T05:39:17;4.28;;;2.10;;
83552;SDS011;73510;50.866;5.420;2024-02-04T05:41:43;5.03;;;2.28;;
83552;SDS011;73510;50.866;5.420;2024-02-04T05:44:09;5.68;;;2.00;;
83552;SDS011;73510;50.866;5.420;2024-02-04T05:46:35;3.85;;;2.08;;
83552;SDS011;73510;50.866;5.420;2024-02-04T05:49:01;3.95;;;2.30;;
83552;SDS011;73510;50.866;5.420;2024-02-04T05:51:27;3.35;;;2.03;;
83552;SDS011;73510;50.866;5.420;2024-02-04T05:53:53;3.83;;;2.33;;
83552;SDS011;73510;50.866;5.420;2024-02-04T05:56:20;3.13;;;1.67;;
83552;SDS011;73510;50.866;5.420;2024-02-04T05:58:46;2.85;;;1.60;;
83552;SDS011;73510;50.866;5.420;2024-02-04T06:01:12;2.70;;;1.55;;
83552;SDS011;73510;50.866;5.420;2024-02-04T06:03:38;3.83;;;1.60;;
83552;SDS011;73510;50.866;5.420;2024-02-04T06:06:06;3.72;;;1.55;;
83552;SDS011;73510;50.866;5.420;2024-02-04T06:08:32;2.97;;;1.90;;
83552;SDS011;73510;50.866;5.420;2024-02-04T06:10:57;4.20;;;1.98;;
83552;SDS011;73510;50.866;5.420;2024-02-04T06:13:23;2.92;;;1.80;;
83552;SDS011;73510;50.866;5.420;2024-02-04T06:15:49;4.85;;;1.98;;
83552;SDS011;73510;50.866;5.420;2024-02-04T06:18:14;2.80;;;1.77;;
83552;SDS011;73510;50.866;5.420;2024-02-04T06:20:40;4.20;;;1.75;;
83552;SDS011;73510;50.866;5.420;2024-02-04T06:23:06;2.42;;;1.73;;
83552;SDS011;73510;50.866;5.420;2024-02-04T06:25:31;3.55;;;2.00;;
83552;SDS011;73510;50.866;5.420;2024-02-04T06:27:57;2.67;;;2.05;;
83552;SDS011;73510;50.866;5.420;2024-02-04T06:30:23;6.25;;;1.92;;
83552;SDS011;73510;50.866;5.420;2024-02-04T06:32:48;3.85;;;2.28;;
83552;SDS011;73510;50.866;5.420;2024-02-04T06:35:17;3.10;;;1.77;;
83552;SDS011;73510;50.866;5.420;2024-02-04T06:37:43;3.28;;;1.90;;
83552;SDS011;73510;50.866;5.420;2024-02-04T06:40:10;2.92;;;1.90;;
83552;SDS011;73510;50.866;5.420;2024-02-04T06:42:36;2.85;;;1.85;;
83552;SDS011;73510;50.866;5.420;2024-02-04T06:45:02;2.85;;;2.17;;
83552;SDS011;73510;50.866;5.420;2024-02-04T06:47:29;3.17;;;2.13;;
83552;SDS011;73510;50.866;5.420;2024-02-04T06:49:55;6.30;;;2.38;;
83552;SDS011;73510;50.866;5.420;2024-02-04T06:52:20;3.65;;;1.90;;
83552;SDS011;73510;50.866;5.420;2024-02-04T06:54:46;6.72;;;2.28;;
83552;SDS011;73510;50.866;5.420;2024-02-04T06:57:11;4.00;;;2.53;;
83552;SDS011;73510;50.866;5.420;2024-02-04T06:59:37;5.70;;;2.30;;
83552;SDS011;73510;50.866;5.420;2024-02-04T07:02:03;5.38;;;2.40;;
83552;SDS011;73510;50.866;5.420;2024-02-04T07:04:28;7.80;;;2.75;;
83552;SDS011;73510;50.866;5.420;2024-02-04T07:06:54;4.32;;;2.85;;
83552;SDS011;73510;50.866;5.420;2024-02-04T07:09:20;5.25;;;2.33;;
83552;SDS011;73510;50.866;5.420;2024-02-04T07:11:45;3.38;;;1.58;;
83552;SDS011;73510;50.866;5.420;2024-02-04T07:14:11;4.07;;;2.22;;
83552;SDS011;73510;50.866;5.420;2024-02-04T07:16:37;5.28;;;1.98;;
83552;SDS011;73510;50.866;5.420;2024-02-04T07:19:03;4.07;;;2.15;;
83552;SDS011;73510;50.866;5.420;2024-02-04T07:21:29;4.40;;;1.92;;
83552;SDS011;73510;50.866;5.420;2024-02-04T07:23:55;4.13;;;2.13;;
83552;SDS011;73510;50.866;5.420;2024-02-04T07:26:21;4.90;;;1.88;;
83552;SDS011;73510;50.866;5.420;2024-02-04T07:28:47;7.10;;;2.70;;
83552;SDS011;73510;50.866;5.420;2024-02-04T07:31:12;5.40;;;2.13;;
83552;SDS011;73510;50.866;5.420;2024-02-04T07:33:38;4.15;;;1.83;;
83552;SDS011;73510;50.866;5.420;2024-02-04T07:36:04;4.70;;;2.15;;
83552;SDS011;73510;50.866;5.420;2024-02-04T07:38:30;4.60;;;2.17;;
83552;SDS011;73510;50.866;5.420;2024-02-04T07:40:55;3.10;;;1.52;;
83552;SDS011;73510;50.866;5.420;2024-02-04T07:43:23;4.88;;;1.85;;
83552;SDS011;73510;50.866;5.420;2024-02-04T07:45:49;3.22;;;1.77;;
83552;SDS011;73510;50.866;5.420;2024-02-04T07:48:15;2.50;;;1.25;;
83552;SDS011;73510;50.866;5.420;2024-02-04T07:50:42;5.32;;;1.70;;
83552;SDS011;73510;50.866;5.420;2024-02-04T07:53:08;2.80;;;1.13;;
83552;SDS011;73510;50.866;5.420;2024-02-04T07:55:33;2.92;;;1.50;;
83552;SDS011;73510;50.866;5.420;2024-02-04T07:58:00;3.00;;;1.20;;
83552;SDS011;73510;50.866;5.420;2024-02-04T08:00:25;2.50;;;1.50;;
83552;SDS011;73510;50.866;5.420;2024-02-04T08:02:51;2.35;;;1.55;;
83552;SDS011;73510;50.866;5.420;2024-02-04T08:05:17;2.67;;;1.30;;
83552;SDS011;73510;50.866;5.420;2024-02-04T08:07:43;3.00;;;1.70;;
83552;SDS011;73510;50.866;5.420;2024-02-04T08:10:09;2.38;;;1.85;;
83552;SDS011;73510;50.866;5.420;2024-02-04T08:12:34;3.72;;;1.55;;
83552;SDS011;73510;50.866;5.420;2024-02-04T08:15:00;4.30;;;1.75;;
83552;SDS011;73510;50.866;5.420;2024-02-04T08:17:26;2.45;;;1.40;;
83552;SDS011;73510;50.866;5.420;2024-02-04T08:19:55;3.67;;;2.00;;
83552;SDS011;73510;50.866;5.420;2024-02-04T08:22:21;3.53;;;1.73;;
83552;SDS011;73510;50.866;5.420;2024-02-04T08:24:47;3.88;;;1.48;;
83552;SDS011;73510;50.866;5.420;2024-02-04T08:27:13;3.75;;;1.60;;
83552;SDS011;73510;50.866;5.420;2024-02-04T08:29:41;2.55;;;1.75;;
83552;SDS011;73510;50.866;5.420;2024-02-04T08:32:08;3.35;;;1.95;;
83552;SDS011;73510;50.866;5.420;2024-02-04T08:34:33;3.67;;;1.80;;
83552;SDS011;73510;50.866;5.420;2024-02-04T08:36:59;4.40;;;2.38;;
83552;SDS011;73510;50.866;5.420;2024-02-04T08:39:25;3.58;;;1.75;;
83552;SDS011;73510;50.866;5.420;2024-02-04T08:41:51;5.68;;;2.30;;
83552;SDS011;73510;50.866;5.420;2024-02-04T08:44:18;4.20;;;1.88;;
83552;SDS011;73510;50.866;5.420;2024-02-04T08:46:43;7.07;;;2.65;;
83552;SDS011;73510;50.866;5.420;2024-02-04T08:49:09;5.03;;;2.22;;
83552;SDS011;73510;50.866;5.420;2024-02-04T08:51:34;4.40;;;1.73;;
83552;SDS011;73510;50.866;5.420;2024-02-04T08:54:00;10.30;;;2.63;;
83552;SDS011;73510;50.866;5.420;2024-02-04T08:56:26;5.18;;;2.60;;
83552;SDS011;73510;50.866;5.420;2024-02-04T08:58:52;6.30;;;2.75;;
83552;SDS011;73510;50.866;5.420;2024-02-04T09:01:18;4.32;;;2.70;;
83552;SDS011;73510;50.866;5.420;2024-02-04T09:03:44;7.15;;;3.15;;
83552;SDS011;73510;50.866;5.420;2024-02-04T09:06:10;6.18;;;2.92;;
83552;SDS011;73510;50.866;5.420;2024-02-04T09:08:35;5.97;;;2.75;;
83552;SDS011;73510;50.866;5.420;2024-02-04T09:11:01;4.55;;;2.33;;
83552;SDS011;73510;50.866;5.420;2024-02-04T09:13:27;4.28;;;2.60;;
83552;SDS011;73510;50.866;5.420;2024-02-04T09:15:52;6.57;;;3.25;;
83552;SDS011;73510;50.866;5.420;2024-02-04T09:18:19;6.85;;;2.88;;
83552;SDS011;73510;50.866;5.420;2024-02-04T09:20:45;6.63;;;3.00;;
83552;SDS011;73510;50.866;5.420;2024-02-04T09:23:11;6.55;;;2.92;;
83552;SDS011;73510;50.866;5.420;2024-02-04T09:25:38;5.90;;;3.13;;
83552;SDS011;73510;50.866;5.420;2024-02-04T09:28:04;6.50;;;3.13;;
83552;SDS011;73510;50.866;5.420;2024-02-04T09:30:30;6.53;;;2.90;;
83552;SDS011;73510;50.866;5.420;2024-02-04T09:32:56;9.82;;;3.47;;
83552;SDS011;73510;50.866;5.420;2024-02-04T09:35:22;9.10;;;3.50;;
83552;SDS011;73510;50.866;5.420;2024-02-04T09:37:47;7.18;;;3.13;;
83552;SDS011;73510;50.866;5.420;2024-02-04T09:40:13;8.40;;;3.00;;
83552;SDS011;73510;50.866;5.420;2024-02-04T09:42:40;6.15;;;2.92;;
83552;SDS011;73510;50.866;5.420;2024-02-04T09:45:05;4.80;;;2.85;;
83552;SDS011;73510;50.866;5.420;2024-02-04T09:47:32;6.25;;;3.00;;
83552;SDS011;73510;50.866;5.420;2024-02-04T09:49:59;7.38;;;2.45;;
83552;SDS011;73510;50.866;5.420;2024-02-04T09:52:29;5.18;;;2.33;;
83552;SDS011;73510;50.866;5.420;2024-02-04T09:55:01;6.35;;;2.78;;
83552;SDS011;73510;50.866;5.420;2024-02-04T09:57:31;5.15;;;2.22;;
83552;SDS011;73510;50.866;5.420;2024-02-04T09:59:59;4.28;;;2.55;;
83552;SDS011;73510;50.866;5.420;2024-02-04T10:02:27;5.72;;;2.75;;
83552;SDS011;73510;50.866;5.420;2024-02-04T10:04:53;6.85;;;2.53;;
83552;SDS011;73510;50.866;5.420;2024-02-04T10:07:19;7.20;;;2.47;;
83552;SDS011;73510;50.866;5.420;2024-02-04T10:09:44;4.93;;;2.53;;
83552;SDS011;73510;50.866;5.420;2024-02-04T10:12:12;8.00;;;2.90;;
83552;SDS011;73510;50.866;5.420;2024-02-04T10:14:37;6.47;;;2.30;;
83552;SDS011;73510;50.866;5.420;2024-02-04T10:17:03;5.53;;;2.83;;
83552;SDS011;73510;50.866;5.420;2024-02-04T10:19:29;4.82;;;2.53;;
83552;SDS011;73510;50.866;5.420;2024-02-04T10:22:02;4.68;;;2.33;;
83552;SDS011;73510;50.866;5.420;2024-02-04T10:24:29;3.63;;;1.55;;
83552;SDS011;73510;50.866;5.420;2024-02-04T10:26:55;3.22;;;1.80;;
83552;SDS011;73510;50.866;5.420;2024-02-04T10:29:21;4.15;;;2.58;;
83552;SDS011;73510;50.866;5.420;2024-02-04T10:31:54;6.68;;;2.88;;
83552;SDS011;73510;50.866;5.420;2024-02-04T10:34:20;5.88;;;2.00;;
83552;SDS011;73510;50.866;5.420;2024-02-04T10:36:46;4.05;;;2.30;;
83552;SDS011;73510;50.866;5.420;2024-02-04T10:39:12;3.92;;;1.75;;
83552;SDS011;73510;50.866;5.420;2024-02-04T10:41:40;2.88;;;1.75;;
83552;SDS011;73510;50.866;5.420;2024-02-04T10:44:20;2.72;;;1.58;;
83552;SDS011;73510;50.866;5.420;2024-02-04T10:46:47;4.43;;;1.77;;
83552;SDS011;73510;50.866;5.420;2024-02-04T10:49:14;5.32;;;1.65;;
83552;SDS011;73510;50.866;5.420;2024-02-04T10:51:41;3.75;;;1.45;;
83552;SDS011;73510;50.866;5.420;2024-02-04T10:54:08;3.10;;;1.50;;
83552;SDS011;73510;50.866;5.420;2024-02-04T10:56:45;3.15;;;1.42;;
83552;SDS011;73510;50.866;5.420;2024-02-04T10:59:11;4.60;;;1.33;;
83552;SDS011;73510;50.866;5.420;2024-02-04T11:04:08;3.00;;;1.55;;
83552;SDS011;73510;50.866;5.420;2024-02-04T11:06:36;3.70;;;1.40;;
83552;SDS011;73510;50.866;5.420;2024-02-04T11:09:03;1.92;;;1.30;;
83552;SDS011;73510;50.866;5.420;2024-02-04T11:11:31;3.25;;;1.67;;
83552;SDS011;73510;50.866;5.420;2024-02-04T11:13:58;3.95;;;1.77;;
83552;SDS011;73510;50.866;5.420;2024-02-04T11:19:11;3.05;;;1.67;;
83552;SDS011;73510;50.866;5.420;2024-02-04T11:27:53;3.35;;;2.00;;
83552;SDS011;73510;50.866;5.420;2024-02-04T11:30:19;1.90;;;1.50;;
83552;SDS011;73510;50.866;5.420;2024-02-04T11:32:45;3.17;;;1.83;;
83552;SDS011;73510;50.866;5.420;2024-02-04T11:35:11;1.67;;;1.58;;
83552;SDS011;73510;50.866;5.420;2024-02-04T11:37:38;6.40;;;2.22;;
83552;SDS011;73510;50.866;5.420;2024-02-04T11:40:07;2.47;;;1.85;;
83552;SDS011;73510;50.866;5.420;2024-02-04T11:42:39;3.70;;;2.20;;
83552;SDS011;73510;50.866;5.420;2024-02-04T11:45:12;2.53;;;1.80;;
83552;SDS011;73510;50.866;5.420;2024-02-04T11:47:38;2.80;;;1.77;;
83552;SDS011;73510;50.866;5.420;2024-02-04T11:50:05;3.10;;;1.75;;
83552;SDS011;73510;50.866;5.420;2024-02-04T11:52:32;2.90;;;1.65;;
83552;SDS011;73510;50.866;5.420;2024-02-04T11:54:58;2.90;;;2.05;;
83552;SDS011;73510;50.866;5.420;2024-02-04T11:57:24;1.92;;;1.73;;
83552;SDS011;73510;50.866;5.420;2024-02-04T11:59:51;3.47;;;1.67;;
83552;SDS011;73510;50.866;5.420;2024-02-04T12:02:21;3.15;;;1.63;;
83552;SDS011;73510;50.866;5.420;2024-02-04T12:04:48;3.55;;;1.60;;
83552;SDS011;73510;50.866;5.420;2024-02-04T12:07:14;2.15;;;1.48;;
83552;SDS011;73510;50.866;5.420;2024-02-04T12:09:40;3.72;;;1.77;;
83552;SDS011;73510;50.866;5.420;2024-02-04T12:12:06;1.92;;;1.20;;
83552;SDS011;73510;50.866;5.420;2024-02-04T12:14:34;2.08;;;1.50;;
83552;SDS011;73510;50.866;5.420;2024-02-04T12:17:05;2.17;;;1.40;;
83552;SDS011;73510;50.866;5.420;2024-02-04T12:19:36;2.95;;;1.60;;
83552;SDS011;73510;50.866;5.420;2024-02-04T12:22:02;3.75;;;1.60;;
83552;SDS011;73510;50.866;5.420;2024-02-04T12:24:33;2.90;;;1.02;;
83552;SDS011;73510;50.866;5.420;2024-02-04T12:26:59;2.90;;;1.30;;
83552;SDS011;73510;50.866;5.420;2024-02-04T12:29:24;1.67;;;1.10;;
83552;SDS011;73510;50.866;5.420;2024-02-04T12:31:57;1.60;;;1.33;;
83552;SDS011;73510;50.866;5.420;2024-02-04T12:34:24;2.95;;;1.20;;
83552;SDS011;73510;50.866;5.420;2024-02-04T12:36:57;2.90;;;1.30;;
83552;SDS011;73510;50.866;5.420;2024-02-04T12:39:24;2.03;;;1.00;;
83552;SDS011;73510;50.866;5.420;2024-02-04T12:41:53;1.80;;;1.10;;
83552;SDS011;73510;50.866;5.420;2024-02-04T12:44:19;1.85;;;1.42;;
83552;SDS011;73510;50.866;5.420;2024-02-04T12:46:49;1.95;;;1.27;;
83552;SDS011;73510;50.866;5.420;2024-02-04T12:49:20;2.22;;;1.30;;
83552;SDS011;73510;50.866;5.420;2024-02-04T12:51:49;1.35;;;0.70;;
83552;SDS011;73510;50.866;5.420;2024-02-04T12:54:18;3.30;;;1.95;;
83552;SDS011;73510;50.866;5.420;2024-02-04T12:56:48;2.33;;;1.55;;
83552;SDS011;73510;50.866;5.420;2024-02-04T13:02:03;1.63;;;1.08;;
83552;SDS011;73510;50.866;5.420;2024-02-04T13:04:34;1.40;;;0.82;;
83552;SDS011;73510;50.866;5.420;2024-02-04T13:07:01;4.20;;;1.30;;
83552;SDS011;73510;50.866;5.420;2024-02-04T13:09:27;2.38;;;1.13;;
83552;SDS011;73510;50.866;5.420;2024-02-04T13:12:02;1.27;;;1.05;;
83552;SDS011;73510;50.866;5.420;2024-02-04T13:14:29;1.30;;;1.15;;
83552;SDS011;73510;50.866;5.420;2024-02-04T13:16:55;3.53;;;1.48;;
83552;SDS011;73510;50.866;5.420;2024-02-04T13:19:21;1.95;;;1.10;;
83552;SDS011;73510;50.866;5.420;2024-02-04T13:21:47;2.70;;;1.50;;
83552;SDS011;73510;50.866;5.420;2024-02-04T13:24:13;1.73;;;1.30;;
83552;SDS011;73510;50.866;5.420;2024-02-04T13:26:39;2.03;;;1.65;;
83552;SDS011;73510;50.866;5.420;2024-02-04T13:29:04;1.52;;;1.20;;
83552;SDS011;73510;50.866;5.420;2024-02-04T13:31:30;1.95;;;1.30;;
83552;SDS011;73510;50.866;5.420;2024-02-04T13:33:56;1.48;;;0.95;;
83552;SDS011;73510;50.866;5.420;2024-02-04T13:36:22;1.73;;;1.08;;
83552;SDS011;73510;50.866;5.420;2024-02-04T13:38:48;2.30;;;1.35;;
83552;SDS011;73510;50.866;5.420;2024-02-04T13:41:14;2.28;;;1.63;;
83552;SDS011;73510;50.866;5.420;2024-02-04T13:43:39;1.90;;;1.40;;
83552;SDS011;73510;50.866;5.420;2024-02-04T13:46:05;1.83;;;1.40;;
83552;SDS011;73510;50.866;5.420;2024-02-04T13:48:31;1.63;;;1.50;;
83552;SDS011;73510;50.866;5.420;2024-02-04T13:50:56;1.70;;;1.60;;
83552;SDS011;73510;50.866;5.420;2024-02-04T13:53:22;2.35;;;1.50;;
83552;SDS011;73510;50.866;5.420;2024-02-04T13:55:48;2.28;;;1.33;;
83552;SDS011;73510;50.866;5.420;2024-02-04T13:58:15;2.25;;;1.25;;
83552;SDS011;73510;50.866;5.420;2024-02-04T14:00:43;1.50;;;1.20;;
83552;SDS011;73510;50.866;5.420;2024-02-04T14:03:08;1.80;;;1.10;;
83552;SDS011;73510;50.866;5.420;2024-02-04T14:05:35;1.73;;;0.90;;
83552;SDS011;73510;50.866;5.420;2024-02-04T14:08:00;2.20;;;1.13;;
83552;SDS011;73510;50.866;5.420;2024-02-04T14:10:28;1.52;;;0.70;;
83552;SDS011;73510;50.866;5.420;2024-02-04T14:12:54;1.30;;;1.20;;
83552;SDS011;73510;50.866;5.420;2024-02-04T14:15:19;1.83;;;1.02;;
83552;SDS011;73510;50.866;5.420;2024-02-04T14:17:45;2.22;;;1.17;;
83552;SDS011;73510;50.866;5.420;2024-02-04T14:20:11;1.40;;;1.10;;
83552;SDS011;73510;50.866;5.420;2024-02-04T14:22:38;1.30;;;1.10;;
83552;SDS011;73510;50.866;5.420;2024-02-04T14:25:04;2.40;;;1.02;;
83552;SDS011;73510;50.866;5.420;2024-02-04T14:27:31;1.20;;;1.00;;
83552;SDS011;73510;50.866;5.420;2024-02-04T14:29:56;2.63;;;1.25;;
83552;SDS011;73510;50.866;5.420;2024-02-04T14:32:22;1.42;;;1.02;;
83552;SDS011;73510;50.866;5.420;2024-02-04T14:34:49;1.98;;;0.93;;
83552;SDS011;73510;50.866;5.420;2024-02-04T14:37:18;1.08;;;0.70;;
83552;SDS011;73510;50.866;5.420;2024-02-04T14:39:44;3.38;;;1.10;;
83552;SDS011;73510;50.866;5.420;2024-02-04T14:42:10;1.65;;;0.77;;
83552;SDS011;73510;50.866;5.420;2024-02-04T14:44:36;0.73;;;0.60;;
83552;SDS011;73510;50.866;5.420;2024-02-04T14:47:02;1.00;;;0.70;;
83552;SDS011;73510;50.866;5.420;2024-02-04T14:49:27;1.55;;;0.82;;
83552;SDS011;73510;50.866;5.420;2024-02-04T14:51:53;1.08;;;0.70;;
83552;SDS011;73510;50.866;5.420;2024-02-04T14:54:19;1.00;;;0.80;;
83552;SDS011;73510;50.866;5.420;2024-02-04T14:56:44;1.67;;;0.80;;
83552;SDS011;73510;50.866;5.420;2024-02-04T14:59:11;2.35;;;0.90;;
83552;SDS011;73510;50.866;5.420;2024-02-04T15:01:37;1.23;;;0.70;;
83552;SDS011;73510;50.866;5.420;2024-02-04T15:04:03;2.03;;;0.95;;